Time;durP1;ratioP1;P1;durP2;ratioP2;P2;SDS_P1;SDS_P2;PMS_P1;PMS_P2;Temp;Humidity;BMP_temperature;BMP_pressure;BME280_temperature;BME280_humidity;BME280_pressure;Samples;Min_cycle;Max_cycle;Signal;HPM_P1;HPM_P2
2021/10/12 00:02:21;;;;;;;20.97;18.80;;;10.10;99.90;;;;;;4892225;29;20260;-75
2021/10/12 00:04:48;;;;;;;21.67;19.47;;;10.10;99.90;;;;;;4892225;29;20275;-76
2021/10/12 00:07:15;;;;;;;22.57;20.27;;;10.10;99.90;;;;;;4893683;29;20201;-76
2021/10/12 00:09:42;;;;;;;21.93;19.63;;;10.10;99.90;;;;;;4896326;29;20265;-75
2021/10/12 00:12:09;;;;;;;23.00;20.83;;;10.10;99.90;;;;;;4894573;29;20228;-76
2021/10/12 00:14:36;;;;;;;22.83;20.60;;;10.10;99.90;;;;;;4894981;29;20277;-76
2021/10/12 00:17:04;;;;;;;22.97;20.67;;;10.00;99.90;;;;;;4893758;29;20200;-76
2021/10/12 00:19:31;;;;;;;23.23;20.73;;;10.10;99.90;;;;;;4890451;29;20220;-76
2021/10/12 00:21:59;;;;;;;23.47;21.17;;;10.10;99.90;;;;;;4891907;29;20662;-76
2021/10/12 00:24:25;;;;;;;22.07;19.77;;;10.10;99.90;;;;;;4902165;29;20977;-75
2021/10/12 00:26:52;;;;;;;22.90;20.60;;;10.10;99.90;;;;;;4896865;29;20268;-76
2021/10/12 00:29:19;;;;;;;22.50;20.20;;;10.10;99.90;;;;;;4894449;29;20188;-76
2021/10/12 00:31:46;;;;;;;22.40;20.03;;;10.10;99.90;;;;;;4895306;29;20564;-75
2021/10/12 00:34:14;;;;;;;25.10;21.43;;;10.10;99.90;;;;;;4898216;29;20256;-75
2021/10/12 00:36:41;;;;;;;21.30;19.30;;;10.10;99.90;;;;;;4891682;29;20196;-75
2021/10/12 00:39:08;;;;;;;21.60;19.47;;;10.10;99.90;;;;;;4891416;29;20200;-75
2021/10/12 00:41:34;;;;;;;22.07;19.80;;;10.10;99.90;;;;;;4893852;29;20220;-76
2021/10/12 00:44:01;;;;;;;21.73;19.43;;;10.10;99.90;;;;;;4890437;29;20263;-75
2021/10/12 00:46:28;;;;;;;22.30;20.00;;;10.10;99.90;;;;;;4890350;29;20672;-75
2021/10/12 00:48:57;;;;;;;21.87;19.77;;;10.00;99.90;;;;;;4895029;29;20197;-76
2021/10/12 00:51:26;;;;;;;21.37;19.27;;;9.90;99.90;;;;;;4894426;29;20661;-76
2021/10/12 00:53:52;;;;;;;20.37;18.27;;;9.90;99.90;;;;;;4919516;23;20240;-76
2021/10/12 00:56:21;;;;;;;20.33;18.33;;;9.90;99.90;;;;;;4895075;29;20212;-76
2021/10/12 00:58:50;;;;;;;20.77;18.77;;;9.90;99.90;;;;;;4897897;29;20235;-76
2021/10/12 01:01:17;;;;;;;20.87;18.97;;;9.90;99.90;;;;;;4899007;29;20220;-76
2021/10/12 01:03:44;;;;;;;21.97;19.97;;;9.80;99.90;;;;;;4887041;29;20226;-76
2021/10/12 01:06:11;;;;;;;20.97;18.87;;;9.80;99.90;;;;;;4882927;29;20261;-76
2021/10/12 01:08:39;;;;;;;22.57;20.20;;;9.70;99.90;;;;;;4886536;29;20255;-77
2021/10/12 01:11:07;;;;;;;20.67;18.70;;;9.60;99.90;;;;;;4882701;29;20269;-76
2021/10/12 01:13:34;;;;;;;21.83;19.63;;;9.70;99.90;;;;;;4878979;29;20239;-77
2021/10/12 01:16:02;;;;;;;19.63;17.83;;;9.70;99.90;;;;;;4885811;29;20257;-76
2021/10/12 01:18:29;;;;;;;21.37;19.33;;;9.60;99.90;;;;;;4884199;29;20201;-76
2021/10/12 01:20:57;;;;;;;21.87;19.67;;;9.70;99.90;;;;;;4884587;29;20213;-77
2021/10/12 01:23:24;;;;;;;20.80;18.67;;;9.70;99.90;;;;;;4884344;29;20280;-77
2021/10/12 01:25:51;;;;;;;21.27;19.07;;;9.60;99.90;;;;;;4869378;29;20200;-78
2021/10/12 01:28:18;;;;;;;21.50;19.50;;;9.60;99.90;;;;;;4886825;29;20212;-77
2021/10/12 01:30:45;;;;;;;20.70;18.60;;;9.50;99.90;;;;;;4879887;29;20284;-77
2021/10/12 01:33:13;;;;;;;20.40;18.47;;;9.50;99.90;;;;;;4894070;29;20582;-78
2021/10/12 01:35:40;;;;;;;20.23;18.43;;;9.50;99.90;;;;;;4890510;29;20291;-77
2021/10/12 01:38:08;;;;;;;20.50;18.40;;;9.40;99.90;;;;;;4898340;29;20264;-76
2021/10/12 01:40:35;;;;;;;20.93;19.03;;;9.40;99.90;;;;;;4897108;29;20232;-77
2021/10/12 01:43:02;;;;;;;21.10;19.07;;;9.40;99.90;;;;;;4898488;29;20773;-77
2021/10/12 01:45:29;;;;;;;21.90;19.90;;;9.30;99.90;;;;;;4889457;29;20217;-77
2021/10/12 01:47:56;;;;;;;21.50;19.40;;;9.20;99.90;;;;;;4886086;29;20690;-77
2021/10/12 01:50:23;;;;;;;21.53;19.63;;;9.20;99.90;;;;;;4884327;29;20264;-77
2021/10/12 01:52:50;;;;;;;21.90;19.70;;;9.20;99.90;;;;;;4876780;29;20235;-77
2021/10/12 01:55:23;;;;;;;22.27;20.33;;;9.10;99.90;;;;;;4877126;29;20289;-77
2021/10/12 01:57:49;;;;;;;22.40;20.40;;;9.00;99.90;;;;;;4873805;29;20211;-78
2021/10/12 02:00:16;;;;;;;22.37;20.27;;;9.00;99.90;;;;;;4882168;29;20225;-75
2021/10/12 02:02:45;;;;;;;23.63;21.43;;;8.90;99.90;;;;;;4885897;29;20228;-77
2021/10/12 02:05:11;;;;;;;22.67;20.60;;;8.90;99.90;;;;;;4882360;29;20202;-77
2021/10/12 02:07:38;;;;;;;22.77;20.53;;;8.80;99.90;;;;;;4880224;29;20300;-77
2021/10/12 02:10:06;;;;;;;22.67;20.63;;;8.80;99.90;;;;;;4883335;29;20671;-77
2021/10/12 02:12:34;;;;;;;23.00;20.67;;;8.70;99.90;;;;;;4883444;29;20636;-77
2021/10/12 02:15:01;;;;;;;23.47;21.23;;;8.70;99.90;;;;;;4879239;29;20291;-77
2021/10/12 02:17:28;;;;;;;23.47;21.37;;;8.60;99.90;;;;;;4885930;29;20212;-77
2021/10/12 02:19:54;;;;;;;22.33;20.23;;;8.60;99.90;;;;;;4882000;29;20648;-77
2021/10/12 02:22:21;;;;;;;24.60;22.23;;;8.50;99.90;;;;;;4881502;29;20233;-77
2021/10/12 02:24:48;;;;;;;25.27;22.80;;;8.50;99.90;;;;;;4889283;29;20211;-78
2021/10/12 02:27:15;;;;;;;24.80;22.40;;;8.50;99.90;;;;;;4889840;29;20256;-77
2021/10/12 02:29:43;;;;;;;25.87;23.27;;;8.50;99.90;;;;;;4896136;29;20216;-77
2021/10/12 02:32:10;;;;;;;25.40;23.00;;;8.50;99.90;;;;;;4888966;29;20221;-77
2021/10/12 02:34:37;;;;;;;24.13;21.83;;;8.50;99.90;;;;;;4883492;29;20204;-77
2021/10/12 02:37:04;;;;;;;25.87;23.40;;;8.50;99.90;;;;;;4879134;29;20686;-77
2021/10/12 02:39:30;;;;;;;25.70;23.03;;;8.50;99.90;;;;;;4881293;29;20201;-77
2021/10/12 02:41:57;;;;;;;27.27;24.50;;;8.50;99.90;;;;;;4879775;29;20294;-77
2021/10/12 02:44:24;;;;;;;24.23;21.90;;;8.50;99.90;;;;;;4884241;29;20208;-75
2021/10/12 02:46:52;;;;;;;25.93;23.37;;;8.50;99.90;;;;;;4877174;29;20210;-77
2021/10/12 02:49:19;;;;;;;25.80;23.30;;;8.50;99.90;;;;;;4863311;29;20212;-76
2021/10/12 02:51:46;;;;;;;26.73;23.60;;;8.60;99.90;;;;;;4861240;29;20614;-76
2021/10/12 02:54:13;;;;;;;26.17;23.53;;;8.50;99.90;;;;;;4860459;29;20634;-77
2021/10/12 02:56:40;;;;;;;24.70;22.30;;;8.50;99.90;;;;;;4866556;29;20697;-75
2021/10/12 02:59:07;;;;;;;23.37;21.23;;;8.60;99.90;;;;;;4860399;29;20210;-76
2021/10/12 03:01:34;;;;;;;27.30;22.90;;;8.60;99.90;;;;;;4864581;29;20308;-76
2021/10/12 03:04:02;;;;;;;25.50;23.07;;;8.70;99.90;;;;;;4882285;29;20224;-75
2021/10/12 03:06:28;;;;;;;24.63;22.27;;;8.70;99.90;;;;;;4881360;29;20628;-76
2021/10/12 03:08:55;;;;;;;23.90;21.60;;;8.70;99.90;;;;;;4882825;29;20212;-75
2021/10/12 03:11:22;;;;;;;24.33;22.10;;;8.80;99.90;;;;;;4885522;29;20931;-77
2021/10/12 03:13:49;;;;;;;24.70;22.40;;;8.80;99.90;;;;;;4873505;29;20228;-76
2021/10/12 03:16:16;;;;;;;23.93;21.77;;;8.80;99.90;;;;;;4869842;29;20270;-77
2021/10/12 03:18:43;;;;;;;25.70;23.10;;;8.90;99.90;;;;;;4875197;29;20277;-80
2021/10/12 03:21:13;;;;;;;23.07;20.80;;;8.90;99.90;;;;;;4870569;29;20242;-76
2021/10/12 03:23:40;;;;;;;23.10;20.90;;;8.90;99.90;;;;;;4890768;29;20227;-76
2021/10/12 03:26:07;;;;;;;23.43;21.23;;;8.90;99.90;;;;;;4883706;29;20208;-75
2021/10/12 03:28:33;;;;;;;24.70;22.23;;;8.90;99.90;;;;;;4876649;29;20205;-75
2021/10/12 03:31:00;;;;;;;23.97;21.87;;;9.00;99.90;;;;;;4882455;29;20208;-76
2021/10/12 03:33:27;;;;;;;26.97;24.30;;;9.00;99.90;;;;;;4892165;29;20279;-75
2021/10/12 03:35:56;;;;;;;21.60;19.60;;;9.00;99.90;;;;;;4878295;29;20217;-77
2021/10/12 03:38:26;;;;;;;23.93;21.77;;;9.00;99.90;;;;;;4875269;29;20629;-76
2021/10/12 03:40:53;;;;;;;24.63;22.30;;;9.00;99.90;;;;;;4891011;29;20240;-76
2021/10/12 03:43:21;;;;;;;24.70;22.50;;;8.90;99.90;;;;;;4879307;29;20668;-76
2021/10/12 03:45:48;;;;;;;25.07;22.43;;;8.90;99.90;;;;;;4883976;29;20201;-76
2021/10/12 03:48:15;;;;;;;24.00;21.67;;;8.80;99.90;;;;;;4878877;29;20265;-76
2021/10/12 03:50:42;;;;;;;24.27;22.17;;;8.80;99.90;;;;;;4883350;29;20198;-76
2021/10/12 03:53:08;;;;;;;25.00;22.70;;;8.80;99.90;;;;;;4888606;29;20261;-76
2021/10/12 03:55:37;;;;;;;25.63;23.00;;;8.70;99.90;;;;;;4880800;29;20208;-76
2021/10/12 03:58:04;;;;;;;22.93;20.83;;;8.60;99.90;;;;;;4877840;29;20291;-78
2021/10/12 04:00:30;;;;;;;22.20;20.27;;;8.70;99.90;;;;;;4875711;29;20217;-77
2021/10/12 04:02:57;;;;;;;23.90;21.70;;;8.60;99.90;;;;;;4884082;29;20228;-76
2021/10/12 04:05:24;;;;;;;23.57;21.37;;;8.70;99.90;;;;;;4881815;29;20285;-79
2021/10/12 04:07:51;;;;;;;25.30;22.80;;;8.70;99.90;;;;;;4871650;29;20703;-77
2021/10/12 04:10:18;;;;;;;24.37;22.07;;;8.70;99.90;;;;;;4877483;29;20205;-79
2021/10/12 04:12:46;;;;;;;25.20;22.77;;;8.70;99.90;;;;;;4867350;29;20588;-77
2021/10/12 04:15:13;;;;;;;24.00;21.73;;;8.80;99.90;;;;;;4861660;29;20201;-78
2021/10/12 04:17:40;;;;;;;22.60;20.73;;;8.80;99.90;;;;;;4863567;29;20597;-77
2021/10/12 04:20:08;;;;;;;25.73;23.23;;;8.90;99.90;;;;;;4861997;29;20206;-77
2021/10/12 04:22:34;;;;;;;24.60;22.20;;;8.80;99.90;;;;;;4862801;29;20277;-77
2021/10/12 04:25:01;;;;;;;24.37;22.07;;;8.80;99.90;;;;;;4865841;29;20205;-76
2021/10/12 04:27:28;;;;;;;23.57;21.40;;;8.80;99.90;;;;;;4863068;29;20694;-77
2021/10/12 04:29:57;;;;;;;22.57;20.57;;;8.80;99.90;;;;;;4868671;29;20209;-76
2021/10/12 04:32:23;;;;;;;23.53;21.30;;;8.80;99.90;;;;;;4880709;29;20267;-77
2021/10/12 04:34:51;;;;;;;23.27;21.07;;;8.80;99.90;;;;;;4874527;29;20216;-77
2021/10/12 04:37:18;;;;;;;23.27;21.17;;;8.80;99.90;;;;;;4863518;29;20206;-77
2021/10/12 04:39:45;;;;;;;23.60;21.60;;;8.80;99.90;;;;;;4866520;29;20231;-77
2021/10/12 04:42:11;;;;;;;23.57;21.10;;;8.90;99.90;;;;;;4871981;29;20226;-77
2021/10/12 04:44:39;;;;;;;23.07;21.07;;;8.90;99.90;;;;;;4865593;29;20207;-76
2021/10/12 04:47:09;;;;;;;22.43;20.60;;;8.90;99.90;;;;;;4862793;29;20204;-75
2021/10/12 04:49:36;;;;;;;23.33;21.30;;;8.90;99.90;;;;;;4878933;29;20685;-78
2021/10/12 04:52:03;;;;;;;24.23;21.93;;;8.90;99.90;;;;;;4877700;29;20645;-77
2021/10/12 04:54:30;;;;;;;24.20;22.00;;;8.90;99.90;;;;;;4876102;29;20713;-77
2021/10/12 04:56:56;;;;;;;23.50;21.30;;;8.80;99.90;;;;;;4881173;29;20217;-77
2021/10/12 04:59:23;;;;;;;22.10;20.07;;;8.80;99.90;;;;;;4879524;29;20213;-77
2021/10/12 05:01:50;;;;;;;22.37;20.53;;;8.80;99.90;;;;;;4878799;29;20259;-77
2021/10/12 05:04:19;;;;;;;24.17;21.73;;;8.90;99.90;;;;;;4884293;29;20204;-77
2021/10/12 05:06:45;;;;;;;24.17;21.93;;;8.90;99.90;;;;;;4885648;29;20264;-79
2021/10/12 05:09:13;;;;;;;22.80;20.80;;;8.90;99.90;;;;;;4883466;29;20220;-78
2021/10/12 05:11:39;;;;;;;23.23;21.07;;;8.90;99.90;;;;;;4878997;29;20206;-78
2021/10/12 05:14:07;;;;;;;24.50;22.40;;;8.90;99.90;;;;;;4881815;29;20218;-77
2021/10/12 05:16:34;;;;;;;23.83;21.73;;;8.90;99.90;;;;;;4885333;29;20687;-78
2021/10/12 05:19:01;;;;;;;25.73;23.53;;;8.90;99.90;;;;;;4885099;29;20212;-77
2021/10/12 05:21:30;;;;;;;22.93;20.93;;;8.90;99.90;;;;;;4886077;29;20312;-77
2021/10/12 05:23:57;;;;;;;23.47;21.37;;;9.00;99.90;;;;;;4882251;29;20224;-77
2021/10/12 05:26:25;;;;;;;24.40;22.27;;;9.00;99.90;;;;;;4878749;29;20216;-77
2021/10/12 05:28:52;;;;;;;23.37;21.27;;;9.00;99.90;;;;;;4876906;29;20214;-79
2021/10/12 05:31:19;;;;;;;22.77;20.77;;;9.00;99.90;;;;;;4868509;29;20232;-78
2021/10/12 05:33:47;;;;;;;23.83;21.67;;;9.00;99.90;;;;;;4873634;29;20229;-77
2021/10/12 05:36:14;;;;;;;23.87;21.77;;;9.00;99.90;;;;;;4873494;29;20305;-77
2021/10/12 05:38:42;;;;;;;26.03;23.40;;;9.00;99.90;;;;;;4870172;29;20210;-77
2021/10/12 05:41:10;;;;;;;24.80;22.50;;;9.00;99.90;;;;;;4872696;29;20217;-77
2021/10/12 05:43:37;;;;;;;25.27;22.97;;;9.00;99.90;;;;;;4868108;29;20650;-77
2021/10/12 05:46:04;;;;;;;22.70;20.77;;;8.90;99.90;;;;;;4860921;29;20210;-76
2021/10/12 05:48:31;;;;;;;23.70;21.60;;;9.00;99.90;;;;;;4875543;29;20213;-78
2021/10/12 05:50:58;;;;;;;24.07;21.87;;;8.90;99.90;;;;;;4866317;29;20618;-78
2021/10/12 05:53:27;;;;;;;23.63;21.63;;;8.90;99.90;;;;;;4867155;29;20240;-77
2021/10/12 05:56:02;;;;;;;24.70;22.30;;;9.00;99.90;;;;;;4866523;29;20209;-78
2021/10/12 05:58:34;;;;;;;24.90;22.70;;;8.90;99.90;;;;;;4880541;29;21000;-77
2021/10/12 06:01:03;;;;;;;24.17;21.97;;;8.90;99.90;;;;;;4885640;29;20302;-76
2021/10/12 06:03:30;;;;;;;24.23;21.97;;;8.90;99.90;;;;;;4882631;29;20221;-76
2021/10/12 06:05:58;;;;;;;25.60;23.03;;;8.90;99.90;;;;;;4877031;29;20209;-77
2021/10/12 06:08:25;;;;;;;25.07;22.70;;;8.90;99.90;;;;;;4878385;29;20590;-77
2021/10/12 06:10:52;;;;;;;24.93;22.30;;;8.90;99.90;;;;;;4878166;29;20217;-76
2021/10/12 06:13:22;;;;;;;24.40;22.00;;;8.90;99.90;;;;;;4882559;29;20235;-76
2021/10/12 06:15:49;;;;;;;23.40;21.30;;;8.90;99.90;;;;;;4889272;29;20212;-77
2021/10/12 06:18:16;;;;;;;24.87;22.47;;;8.90;99.90;;;;;;4884124;29;20208;-77
2021/10/12 06:20:43;;;;;;;24.07;21.77;;;8.90;99.90;;;;;;4877881;29;20666;-76
2021/10/12 06:23:10;;;;;;;25.07;22.83;;;9.00;99.90;;;;;;4884393;29;20237;-76
2021/10/12 06:25:37;;;;;;;24.73;22.43;;;9.00;99.90;;;;;;4880961;29;20201;-76
2021/10/12 06:28:05;;;;;;;22.80;20.83;;;9.00;99.90;;;;;;4878850;29;20212;-77
2021/10/12 06:30:33;;;;;;;24.10;21.87;;;9.00;99.90;;;;;;4878533;29;20205;-77
2021/10/12 06:33:00;;;;;;;23.50;21.40;;;9.00;99.90;;;;;;4884058;29;20252;-78
2021/10/12 06:35:29;;;;;;;25.13;22.63;;;9.00;99.90;;;;;;4872409;29;20205;-76
2021/10/12 06:37:57;;;;;;;23.90;21.87;;;9.00;99.90;;;;;;4884567;29;20228;-77
2021/10/12 06:40:25;;;;;;;21.83;19.93;;;9.00;99.90;;;;;;4886197;29;20200;-76
2021/10/12 06:42:51;;;;;;;22.63;20.57;;;9.00;99.90;;;;;;4878197;29;20232;-76
2021/10/12 06:45:19;;;;;;;22.63;20.33;;;9.00;99.90;;;;;;4885815;29;20610;-77
2021/10/12 06:47:48;;;;;;;23.23;21.03;;;9.00;99.90;;;;;;4879979;29;20237;-76
2021/10/12 06:50:15;;;;;;;23.33;21.30;;;9.00;99.90;;;;;;4885756;29;20219;-76
2021/10/12 06:52:42;;;;;;;24.00;21.50;;;9.00;99.90;;;;;;4879724;29;20314;-76
2021/10/12 06:55:12;;;;;;;24.07;21.77;;;9.00;99.90;;;;;;4883229;29;20262;-76
2021/10/12 06:57:39;;;;;;;23.00;20.93;;;9.00;99.90;;;;;;4876322;29;20205;-76
2021/10/12 07:00:08;;;;;;;23.67;21.37;;;9.00;99.90;;;;;;4877450;29;20210;-75
2021/10/12 07:02:35;;;;;;;23.43;21.33;;;9.00;99.90;;;;;;4879529;29;20257;-77
2021/10/12 07:05:04;;;;;;;23.03;20.87;;;9.10;99.90;;;;;;4886005;29;20215;-77
2021/10/12 07:07:31;;;;;;;23.63;21.53;;;9.10;99.90;;;;;;4878788;29;20624;-76
2021/10/12 07:09:58;;;;;;;24.27;22.07;;;9.10;99.90;;;;;;4887633;29;20193;-78
2021/10/12 07:12:25;;;;;;;26.37;23.87;;;9.10;99.90;;;;;;4878134;29;20680;-78
2021/10/12 07:14:52;;;;;;;25.97;23.37;;;9.10;99.90;;;;;;4881444;29;20211;-78
2021/10/12 07:17:19;;;;;;;26.17;23.57;;;9.10;99.90;;;;;;4882408;29;20200;-78
2021/10/12 07:19:46;;;;;;;27.30;24.87;;;9.00;99.90;;;;;;4881425;29;20205;-77
2021/10/12 07:22:14;;;;;;;26.43;23.73;;;9.10;99.90;;;;;;4877701;29;20650;-76
2021/10/12 07:24:41;;;;;;;26.37;23.70;;;9.20;99.90;;;;;;4891660;29;20227;-76
2021/10/12 07:27:08;;;;;;;27.20;24.63;;;9.20;99.90;;;;;;4878809;29;20214;-76
2021/10/12 07:29:35;;;;;;;25.40;22.90;;;9.10;99.90;;;;;;4864923;29;20202;-77
2021/10/12 07:32:02;;;;;;;26.60;24.00;;;9.10;99.90;;;;;;4876602;29;20294;-76
2021/10/12 07:34:29;;;;;;;26.50;24.10;;;9.10;99.90;;;;;;4864833;29;20628;-77
2021/10/12 07:36:56;;;;;;;25.13;22.83;;;9.10;99.90;;;;;;4866688;29;20208;-77
2021/10/12 07:39:24;;;;;;;26.63;24.23;;;9.10;99.90;;;;;;4864150;29;20250;-76
2021/10/12 07:41:51;;;;;;;26.13;23.60;;;9.10;99.90;;;;;;4867267;29;20272;-77
2021/10/12 07:44:18;;;;;;;25.27;22.97;;;9.10;99.90;;;;;;4863736;29;20278;-76
2021/10/12 07:46:44;;;;;;;26.30;23.70;;;9.20;99.90;;;;;;4871477;29;20212;-77
2021/10/12 07:49:11;;;;;;;26.50;23.90;;;9.30;99.90;;;;;;4861173;29;20209;-77
2021/10/12 07:51:38;;;;;;;26.37;23.77;;;9.30;99.90;;;;;;4863978;29;20193;-77
2021/10/12 07:54:11;;;;;;;24.53;22.30;;;9.30;99.90;;;;;;4861950;29;20229;-77
2021/10/12 07:56:39;;;;;;;25.60;23.20;;;9.30;99.90;;;;;;4863860;29;20198;-76
2021/10/12 07:59:08;;;;;;;25.67;23.17;;;9.30;99.90;;;;;;4874592;29;20197;-76
2021/10/12 08:01:36;;;;;;;25.80;23.50;;;9.40;99.90;;;;;;4879097;29;20225;-77
2021/10/12 08:04:04;;;;;;;25.57;23.17;;;9.40;99.90;;;;;;4893538;29;20684;-77
2021/10/12 08:06:31;;;;;;;24.67;22.37;;;9.40;99.90;;;;;;4883651;29;20208;-77
2021/10/12 08:08:58;;;;;;;26.47;23.83;;;9.50;99.90;;;;;;4881144;29;20205;-77
2021/10/12 08:11:27;;;;;;;26.13;23.60;;;9.50;99.90;;;;;;4880015;29;20200;-77
2021/10/12 08:14:01;;;;;;;24.53;22.47;;;9.50;99.90;;;;;;4887260;29;20233;-77
2021/10/12 08:16:30;;;;;;;24.43;22.27;;;9.50;99.90;;;;;;4890519;29;20201;-77
2021/10/12 08:18:58;;;;;;;24.63;22.47;;;9.50;99.90;;;;;;4881452;29;20473;-76
2021/10/12 08:21:25;;;;;;;22.43;20.23;;;9.50;99.90;;;;;;4884204;29;20264;-78
2021/10/12 08:23:53;;;;;;;23.20;20.80;;;9.50;99.90;;;;;;4884594;29;20245;-77
2021/10/12 08:26:21;;;;;;;23.17;20.67;;;9.50;99.90;;;;;;4881931;29;20234;-77
2021/10/12 08:28:48;;;;;;;24.03;21.73;;;9.50;99.90;;;;;;4887143;29;20209;-77
2021/10/12 08:31:17;;;;;;;22.20;19.93;;;9.60;99.90;;;;;;4881535;29;20197;-77
2021/10/12 08:33:44;;;;;;;24.23;21.90;;;9.70;99.90;;;;;;4886355;29;20722;-77
2021/10/12 08:36:12;;;;;;;23.67;20.80;;;9.70;99.90;;;;;;4881233;29;20238;-77
2021/10/12 08:39:05;;;;;;;22.23;19.93;;;9.70;99.90;;;;;;4876443;29;20212;-77
2021/10/12 08:41:37;;;;;;;23.07;20.77;;;9.70;99.90;;;;;;4878714;29;20637;-77
2021/10/12 08:44:04;;;;;;;23.90;21.50;;;9.80;99.90;;;;;;4880624;29;20271;-77
2021/10/12 08:46:33;;;;;;;21.30;19.20;;;9.80;99.90;;;;;;4880146;29;20266;-76
2021/10/12 08:49:01;;;;;;;21.17;19.17;;;9.80;99.90;;;;;;4868137;29;20206;-77
2021/10/12 08:51:28;;;;;;;21.67;19.73;;;9.80;99.90;;;;;;4887337;29;20208;-77
2021/10/12 08:53:55;;;;;;;23.40;21.20;;;9.90;99.90;;;;;;4884636;29;20293;-77
2021/10/12 08:56:22;;;;;;;23.30;21.13;;;9.90;99.90;;;;;;4876556;29;20210;-77
2021/10/12 08:58:49;;;;;;;24.50;22.00;;;9.80;99.90;;;;;;4883546;29;20264;-77
2021/10/12 09:01:17;;;;;;;23.93;21.63;;;9.80;99.90;;;;;;4886290;29;20257;-77
2021/10/12 09:06:30;;;;;;;21.63;19.63;;;10.00;99.90;;;;;;4887110;29;20276;-77
2021/10/12 09:09:00;;;;;;;23.40;21.00;;;10.10;99.90;;;;;;4888635;29;20223;-77
2021/10/12 09:11:28;;;;;;;23.87;21.73;;;10.20;99.90;;;;;;4885820;29;20228;-77
2021/10/12 09:14:01;;;;;;;21.87;19.97;;;10.40;99.90;;;;;;4879507;29;20222;-77
2021/10/12 09:16:34;;;;;;;15.07;13.20;;;10.60;99.90;;;;;;4868704;29;20214;-77
2021/10/12 09:19:04;;;;;;;15.23;12.00;;;10.70;99.90;;;;;;4884446;29;20667;-77
2021/10/12 09:21:34;;;;;;;14.67;11.63;;;10.80;99.90;;;;;;4871097;29;20241;-77
2021/10/12 09:24:04;;;;;;;13.30;10.83;;;10.90;99.90;;;;;;4877014;29;20250;-77
2021/10/12 09:26:34;;;;;;;12.50;11.20;;;11.00;99.90;;;;;;4886086;29;20746;-77
2021/10/12 09:29:03;;;;;;;18.93;17.13;;;11.10;99.90;;;;;;4886716;29;20205;-78
2021/10/12 09:31:35;;;;;;;21.60;19.60;;;11.20;99.90;;;;;;4880654;29;20619;-76
2021/10/12 09:34:07;;;;;;;14.63;13.13;;;11.20;99.90;;;;;;4883412;29;20281;-77
2021/10/12 09:36:36;;;;;;;20.63;18.90;;;11.30;99.90;;;;;;4886304;29;20198;-77
2021/10/12 09:39:04;;;;;;;15.97;14.23;;;11.30;99.90;;;;;;4879941;29;20627;-77
2021/10/12 09:41:31;;;;;;;14.57;12.73;;;11.30;99.90;;;;;;4878746;29;20269;-77
2021/10/12 09:44:09;;;;;;;17.33;15.73;;;11.30;99.90;;;;;;4882800;29;20640;-77
2021/10/12 09:46:38;;;;;;;15.83;14.43;;;11.40;99.90;;;;;;4886972;29;20201;-76
2021/10/12 09:49:15;;;;;;;13.87;12.57;;;11.30;99.90;;;;;;4878249;29;20664;-77
2021/10/12 09:51:56;;;;;;;20.20;18.50;;;11.40;99.90;;;;;;4891419;29;20274;-79
2021/10/12 09:54:25;;;;;;;20.80;18.93;;;11.40;99.90;;;;;;4878319;29;20206;-76
2021/10/12 09:56:52;;;;;;;20.33;18.63;;;11.60;99.90;;;;;;4893374;29;20723;-76
2021/10/12 09:59:19;;;;;;;19.80;17.90;;;11.70;99.90;;;;;;4884913;29;20213;-77
2021/10/12 10:01:49;;;;;;;17.93;16.13;;;11.80;99.90;;;;;;4890225;29;20198;-77
2021/10/12 10:04:19;;;;;;;17.47;15.97;;;11.80;99.90;;;;;;4884495;29;20211;-77
2021/10/12 10:06:48;;;;;;;19.93;18.03;;;12.00;99.90;;;;;;4883981;29;20207;-77
2021/10/12 10:09:16;;;;;;;16.70;15.13;;;12.00;99.90;;;;;;4861343;29;20278;-78
2021/10/12 10:11:43;;;;;;;18.30;16.60;;;12.10;99.90;;;;;;4860466;29;20736;-78
2021/10/12 10:14:11;;;;;;;18.60;17.07;;;12.20;99.90;;;;;;4859229;29;20724;-77
2021/10/12 10:16:45;;;;;;;19.27;17.53;;;12.40;99.90;;;;;;4860660;29;20208;-77
2021/10/12 10:19:15;;;;;;;18.30;16.50;;;12.50;99.90;;;;;;4860324;29;20581;-77
2021/10/12 10:21:46;;;;;;;16.47;14.73;;;12.60;99.90;;;;;;4866090;29;20201;-78
2021/10/12 10:24:23;;;;;;;16.90;14.57;;;12.70;99.90;;;;;;4863006;29;20231;-78
2021/10/12 10:26:51;;;;;;;17.10;15.60;;;12.70;99.90;;;;;;4861943;29;20218;-78
2021/10/12 10:29:29;;;;;;;16.17;14.47;;;12.70;99.90;;;;;;4864507;29;20209;-77
2021/10/12 10:31:59;;;;;;;19.50;17.70;;;12.80;99.90;;;;;;4870591;29;20204;-78
2021/10/12 10:34:44;;;;;;;17.03;15.63;;;12.90;99.90;;;;;;4872359;29;20202;-78
2021/10/12 10:37:32;;;;;;;15.67;14.10;;;13.00;99.90;;;;;;4882764;29;20617;-78
2021/10/12 10:40:25;;;;;;;18.57;17.03;;;13.20;99.90;;;;;;4873872;29;20734;-78
2021/10/12 10:43:00;;;;;;;15.90;14.00;;;13.30;99.90;;;;;;4877831;29;20234;-78
2021/10/12 10:45:41;;;;;;;15.20;13.80;;;13.30;99.90;;;;;;4884278;29;20204;-78
2021/10/12 10:48:10;;;;;;;19.70;18.10;;;13.40;99.90;;;;;;4884839;29;20468;-78
2021/10/12 10:50:37;;;;;;;19.53;17.87;;;13.30;99.90;;;;;;4885247;29;20260;-78
2021/10/12 10:53:09;;;;;;;18.17;16.77;;;13.20;99.90;;;;;;4885547;29;20285;-78
2021/10/12 10:55:38;;;;;;;19.67;17.97;;;13.20;99.90;;;;;;4885918;29;20677;-78
2021/10/12 10:58:12;;;;;;;19.13;17.57;;;13.10;99.90;;;;;;4877276;29;20263;-78
2021/10/12 11:00:41;;;;;;;13.43;12.13;;;13.10;99.90;;;;;;4890954;29;20273;-78
2021/10/12 11:03:09;;;;;;;13.00;11.80;;;13.00;99.90;;;;;;4877465;29;20234;-77
2021/10/12 11:05:45;;;;;;;14.77;13.43;;;12.80;99.90;;;;;;4889613;29;20287;-78
2021/10/12 11:08:19;;;;;;;19.67;18.17;;;12.70;99.90;;;;;;4878333;29;20209;-78
2021/10/12 11:10:49;;;;;;;19.20;17.60;;;12.50;99.90;;;;;;4881129;29;20249;-78
2021/10/12 11:13:33;;;;;;;19.50;17.77;;;12.40;99.90;;;;;;4882607;29;20623;-78
2021/10/12 11:16:00;;;;;;;20.30;18.60;;;12.30;99.90;;;;;;4871085;29;20652;-76
2021/10/12 11:18:27;;;;;;;12.80;11.53;;;12.20;99.90;;;;;;4882329;29;20205;-77
2021/10/12 11:20:57;;;;;;;14.40;13.27;;;12.20;99.90;;;;;;4883418;29;20196;-77
2021/10/12 11:23:28;;;;;;;17.77;16.17;;;12.20;99.90;;;;;;4885136;29;20277;-77
2021/10/12 11:26:00;;;;;;;12.53;11.33;;;12.30;99.90;;;;;;4872623;29;20209;-78
2021/10/12 11:28:29;;;;;;;13.80;12.40;;;12.50;99.90;;;;;;4876938;29;20279;-78
2021/10/12 11:30:59;;;;;;;12.13;11.03;;;12.60;99.90;;;;;;4884836;29;20270;-77
2021/10/12 11:33:38;;;;;;;12.20;11.20;;;12.60;99.90;;;;;;4879576;29;20229;-78
2021/10/12 11:36:08;;;;;;;12.50;11.30;;;12.60;99.90;;;;;;4884417;29;20230;-78
2021/10/12 11:38:39;;;;;;;10.40;9.40;;;12.60;99.90;;;;;;4880462;29;20227;-78
2021/10/12 11:41:14;;;;;;;16.40;15.10;;;12.60;99.90;;;;;;4886321;29;20201;-77
2021/10/12 11:43:43;;;;;;;12.77;11.67;;;12.60;99.90;;;;;;4879609;29;20228;-77
2021/10/12 11:46:10;;;;;;;12.20;11.17;;;12.50;99.90;;;;;;4880947;29;20208;-79
2021/10/12 11:48:40;;;;;;;18.23;16.93;;;12.50;99.90;;;;;;4880657;29;20203;-77
2021/10/12 11:51:14;;;;;;;9.97;9.07;;;12.40;99.90;;;;;;4881703;29;20312;-77
2021/10/12 11:53:43;;;;;;;11.30;10.33;;;12.40;99.90;;;;;;4880667;29;20358;-77
2021/10/12 11:56:12;;;;;;;10.70;9.90;;;12.50;99.90;;;;;;4884433;29;20253;-78
2021/10/12 11:58:39;;;;;;;10.07;9.20;;;12.50;99.90;;;;;;4869507;29;20673;-78
2021/10/12 12:01:08;;;;;;;16.80;15.60;;;12.70;99.90;;;;;;4866040;29;20265;-77
2021/10/12 12:03:36;;;;;;;9.97;9.00;;;12.90;99.90;;;;;;4885394;29;20288;-77
2021/10/12 12:06:03;;;;;;;9.50;8.60;;;13.00;99.90;;;;;;4885192;29;20210;-78
2021/10/12 12:08:32;;;;;;;12.10;11.10;;;13.10;99.90;;;;;;4893379;29;20644;-78
2021/10/12 12:11:01;;;;;;;10.83;9.93;;;13.10;99.90;;;;;;4885070;29;20265;-77
2021/10/12 12:13:28;;;;;;;11.20;10.20;;;13.20;99.90;;;;;;4883081;29;20568;-77
2021/10/12 12:15:56;;;;;;;12.53;11.57;;;13.20;99.90;;;;;;4881878;29;20208;-77
2021/10/12 12:18:25;;;;;;;9.87;9.03;;;13.20;99.90;;;;;;4881948;29;20250;-78
2021/10/12 12:20:56;;;;;;;11.17;8.60;;;13.20;99.90;;;;;;4882877;29;20231;-79
2021/10/12 12:23:34;;;;;;;9.70;8.80;;;13.20;99.90;;;;;;4891558;29;20221;-77
2021/10/12 12:26:04;;;;;;;14.07;12.97;;;13.20;99.90;;;;;;4876842;29;20202;-78
2021/10/12 12:28:32;;;;;;;11.17;10.23;;;13.10;99.90;;;;;;4880071;29;20202;-77
2021/10/12 12:30:59;;;;;;;12.53;11.43;;;13.00;99.90;;;;;;4863809;29;20210;-77
2021/10/12 12:33:26;;;;;;;9.50;8.60;;;13.00;99.90;;;;;;4863285;29;20700;-78
2021/10/12 12:35:54;;;;;;;10.13;9.27;;;12.90;99.90;;;;;;4865840;29;20270;-77
2021/10/12 12:38:26;;;;;;;10.57;9.50;;;12.80;99.90;;;;;;4862905;29;20201;-77
2021/10/12 12:40:54;;;;;;;9.87;9.00;;;12.80;99.90;;;;;;4868847;29;20202;-77
2021/10/12 12:43:24;;;;;;;10.30;9.30;;;12.90;99.90;;;;;;4864191;29;20245;-77